sensor_id;sensor_type;location;lat;lon;timestamp;temperature;humidity
7366;DHT22;3723;52.220;8.792;2023-11-21T00:00:16;4.70;1.00
7366;DHT22;3723;52.220;8.792;2023-11-21T00:02:44;4.80;1.00
7366;DHT22;3723;52.220;8.792;2023-11-21T00:05:13;4.80;1.00
7366;DHT22;3723;52.220;8.792;2023-11-21T00:07:41;4.80;1.00
7366;DHT22;3723;52.220;8.792;2023-11-21T00:10:09;4.90;1.00
7366;DHT22;3723;52.220;8.792;2023-11-21T00:12:37;4.90;1.00
7366;DHT22;3723;52.220;8.792;2023-11-21T00:15:08;4.90;1.00
7366;DHT22;3723;52.220;8.792;2023-11-21T00:17:36;4.90;1.00
7366;DHT22;3723;52.220;8.792;2023-11-21T00:20:06;5.00;1.00
7366;DHT22;3723;52.220;8.792;2023-11-21T00:22:34;5.00;1.00
7366;DHT22;3723;52.220;8.792;2023-11-21T00:25:01;5.00;1.00
7366;DHT22;3723;52.220;8.792;2023-11-21T00:27:29;5.10;1.00
7366;DHT22;3723;52.220;8.792;2023-11-21T00:29:56;5.10;1.00
7366;DHT22;3723;52.220;8.792;2023-11-21T00:32:23;5.20;1.00
7366;DHT22;3723;52.220;8.792;2023-11-21T00:34:50;5.20;1.00
7366;DHT22;3723;52.220;8.792;2023-11-21T00:37:21;5.30;1.00
7366;DHT22;3723;52.220;8.792;2023-11-21T00:39:49;5.30;1.00
7366;DHT22;3723;52.220;8.792;2023-11-21T00:42:16;5.30;1.00
7366;DHT22;3723;52.220;8.792;2023-11-21T00:44:43;5.40;1.00
7366;DHT22;3723;52.220;8.792;2023-11-21T00:47:10;5.40;1.00
7366;DHT22;3723;52.220;8.792;2023-11-21T00:49:37;5.40;1.00
7366;DHT22;3723;52.220;8.792;2023-11-21T00:52:05;5.40;1.00
7366;DHT22;3723;52.220;8.792;2023-11-21T00:54:34;5.50;1.00
7366;DHT22;3723;52.220;8.792;2023-11-21T00:57:01;5.50;1.00
7366;DHT22;3723;52.220;8.792;2023-11-21T00:59:29;5.60;1.00
7366;DHT22;3723;52.220;8.792;2023-11-21T01:01:56;5.60;1.00
7366;DHT22;3723;52.220;8.792;2023-11-21T01:04:26;5.60;1.00
7366;DHT22;3723;52.220;8.792;2023-11-21T01:06:53;5.70;1.00
7366;DHT22;3723;52.220;8.792;2023-11-21T01:09:20;5.70;1.00
7366;DHT22;3723;52.220;8.792;2023-11-21T01:11:48;5.80;1.00
7366;DHT22;3723;52.220;8.792;2023-11-21T01:14:15;5.80;1.00
7366;DHT22;3723;52.220;8.792;2023-11-21T01:16:43;5.90;1.00
7366;DHT22;3723;52.220;8.792;2023-11-21T01:19:10;5.90;1.00
7366;DHT22;3723;52.220;8.792;2023-11-21T01:21:37;5.90;1.00
7366;DHT22;3723;52.220;8.792;2023-11-21T01:24:05;6.00;1.00
7366;DHT22;3723;52.220;8.792;2023-11-21T01:26:33;6.00;1.00
7366;DHT22;3723;52.220;8.792;2023-11-21T01:29:01;6.00;1.00
7366;DHT22;3723;52.220;8.792;2023-11-21T01:31:28;6.10;1.70
7366;DHT22;3723;52.220;8.792;2023-11-21T01:33:55;6.10;5.10
7366;DHT22;3723;52.220;8.792;2023-11-21T01:36:22;6.10;5.90
7366;DHT22;3723;52.220;8.792;2023-11-21T01:38:49;6.20;7.30
7366;DHT22;3723;52.220;8.792;2023-11-21T01:41:16;6.20;7.70
7366;DHT22;3723;52.220;8.792;2023-11-21T01:43:43;6.20;7.20
7366;DHT22;3723;52.220;8.792;2023-11-21T01:46:12;6.10;7.10
7366;DHT22;3723;52.220;8.792;2023-11-21T01:48:41;6.20;8.70
7366;DHT22;3723;52.220;8.792;2023-11-21T01:51:08;6.10;12.00
7366;DHT22;3723;52.220;8.792;2023-11-21T01:53:35;6.10;15.70
7366;DHT22;3723;52.220;8.792;2023-11-21T01:56:02;6.20;20.00
7366;DHT22;3723;52.220;8.792;2023-11-21T01:58:31;6.20;24.70
7366;DHT22;3723;52.220;8.792;2023-11-21T02:00:58;6.20;29.40
7366;DHT22;3723;52.220;8.792;2023-11-21T02:03:27;6.30;34.80
7366;DHT22;3723;52.220;8.792;2023-11-21T02:05:54;6.30;40.10
7366;DHT22;3723;52.220;8.792;2023-11-21T02:08:21;6.30;44.60
7366;DHT22;3723;52.220;8.792;2023-11-21T02:10:48;6.30;49.60
7366;DHT22;3723;52.220;8.792;2023-11-21T02:13:15;6.30;54.40
7366;DHT22;3723;52.220;8.792;2023-11-21T02:15:43;6.40;58.20
7366;DHT22;3723;52.220;8.792;2023-11-21T02:18:10;6.40;63.50
7366;DHT22;3723;52.220;8.792;2023-11-21T02:20:47;6.40;68.00
7366;DHT22;3723;52.220;8.792;2023-11-21T02:23:15;6.40;72.00
7366;DHT22;3723;52.220;8.792;2023-11-21T02:25:43;6.50;75.20
7366;DHT22;3723;52.220;8.792;2023-11-21T02:28:10;6.50;88.90
7366;DHT22;3723;52.220;8.792;2023-11-21T02:30:38;6.50;81.20
7366;DHT22;3723;52.220;8.792;2023-11-21T02:33:05;6.50;83.60
7366;DHT22;3723;52.220;8.792;2023-11-21T02:35:32;6.50;86.40
7366;DHT22;3723;52.220;8.792;2023-11-21T02:38:00;6.50;89.80
7366;DHT22;3723;52.220;8.792;2023-11-21T02:40:29;6.50;91.30
7366;DHT22;3723;52.220;8.792;2023-11-21T02:42:55;6.50;93.10
7366;DHT22;3723;52.220;8.792;2023-11-21T02:45:24;6.50;95.00
7366;DHT22;3723;52.220;8.792;2023-11-21T02:47:51;6.50;97.10
7366;DHT22;3723;52.220;8.792;2023-11-21T02:50:22;6.60;98.30
7366;DHT22;3723;52.220;8.792;2023-11-21T02:52:49;6.60;99.80
7366;DHT22;3723;52.220;8.792;2023-11-21T02:55:16;6.60;99.90
7366;DHT22;3723;52.220;8.792;2023-11-21T02:57:45;6.60;99.90
7366;DHT22;3723;52.220;8.792;2023-11-21T03:00:12;6.60;99.90
7366;DHT22;3723;52.220;8.792;2023-11-21T03:02:40;6.70;99.90
7366;DHT22;3723;52.220;8.792;2023-11-21T03:05:08;6.70;99.90
7366;DHT22;3723;52.220;8.792;2023-11-21T03:07:36;6.70;99.90
7366;DHT22;3723;52.220;8.792;2023-11-21T03:10:03;6.70;99.90
7366;DHT22;3723;52.220;8.792;2023-11-21T03:12:30;6.70;99.90
7366;DHT22;3723;52.220;8.792;2023-11-21T03:14:59;6.70;99.90
7366;DHT22;3723;52.220;8.792;2023-11-21T03:17:27;6.70;99.90
7366;DHT22;3723;52.220;8.792;2023-11-21T03:19:54;6.70;99.90
7366;DHT22;3723;52.220;8.792;2023-11-21T03:22:22;6.80;99.90
7366;DHT22;3723;52.220;8.792;2023-11-21T03:24:50;6.70;99.90
7366;DHT22;3723;52.220;8.792;2023-11-21T03:27:16;6.70;99.90
7366;DHT22;3723;52.220;8.792;2023-11-21T03:29:43;6.70;99.90
7366;DHT22;3723;52.220;8.792;2023-11-21T03:32:12;6.70;99.90
7366;DHT22;3723;52.220;8.792;2023-11-21T03:34:53;6.80;99.90
7366;DHT22;3723;52.220;8.792;2023-11-21T03:37:21;6.80;99.90
7366;DHT22;3723;52.220;8.792;2023-11-21T03:39:48;6.80;99.90
7366;DHT22;3723;52.220;8.792;2023-11-21T03:42:15;6.80;99.90
7366;DHT22;3723;52.220;8.792;2023-11-21T03:44:42;6.90;99.90
7366;DHT22;3723;52.220;8.792;2023-11-21T03:47:08;6.90;99.90
7366;DHT22;3723;52.220;8.792;2023-11-21T03:49:37;6.90;99.90
7366;DHT22;3723;52.220;8.792;2023-11-21T03:52:05;6.90;99.90
7366;DHT22;3723;52.220;8.792;2023-11-21T03:54:33;6.90;99.90
7366;DHT22;3723;52.220;8.792;2023-11-21T03:57:01;6.90;99.90
7366;DHT22;3723;52.220;8.792;2023-11-21T03:59:28;6.90;99.90
7366;DHT22;3723;52.220;8.792;2023-11-21T04:01:55;6.90;99.90
7366;DHT22;3723;52.220;8.792;2023-11-21T04:04:23;6.90;99.90
7366;DHT22;3723;52.220;8.792;2023-11-21T04:06:51;7.00;99.90
7366;DHT22;3723;52.220;8.792;2023-11-21T04:09:19;7.00;99.90
7366;DHT22;3723;52.220;8.792;2023-11-21T04:11:46;7.00;99.90
7366;DHT22;3723;52.220;8.792;2023-11-21T04:14:13;7.00;99.90
7366;DHT22;3723;52.220;8.792;2023-11-21T04:16:40;7.00;99.90
7366;DHT22;3723;52.220;8.792;2023-11-21T04:19:07;7.00;99.90
7366;DHT22;3723;52.220;8.792;2023-11-21T04:21:36;7.00;99.90
7366;DHT22;3723;52.220;8.792;2023-11-21T04:24:05;7.00;99.90
7366;DHT22;3723;52.220;8.792;2023-11-21T04:26:32;7.10;99.90
7366;DHT22;3723;52.220;8.792;2023-11-21T04:28:59;7.10;99.90
7366;DHT22;3723;52.220;8.792;2023-11-21T04:31:27;7.10;99.90
7366;DHT22;3723;52.220;8.792;2023-11-21T04:33:54;7.10;99.90
7366;DHT22;3723;52.220;8.792;2023-11-21T04:36:21;7.10;99.90
7366;DHT22;3723;52.220;8.792;2023-11-21T04:38:48;7.10;99.90
7366;DHT22;3723;52.220;8.792;2023-11-21T04:41:16;7.20;99.90
7366;DHT22;3723;52.220;8.792;2023-11-21T04:43:43;7.20;99.90
7366;DHT22;3723;52.220;8.792;2023-11-21T04:46:10;7.20;99.90
7366;DHT22;3723;52.220;8.792;2023-11-21T04:48:38;7.20;99.90
7366;DHT22;3723;52.220;8.792;2023-11-21T04:51:05;7.20;99.90
7366;DHT22;3723;52.220;8.792;2023-11-21T04:53:32;7.20;99.90
7366;DHT22;3723;52.220;8.792;2023-11-21T04:56:00;7.30;99.90
7366;DHT22;3723;52.220;8.792;2023-11-21T04:58:28;7.30;99.90
7366;DHT22;3723;52.220;8.792;2023-11-21T05:00:56;7.30;99.90
7366;DHT22;3723;52.220;8.792;2023-11-21T05:03:23;7.30;99.90
7366;DHT22;3723;52.220;8.792;2023-11-21T05:05:51;7.30;99.90
7366;DHT22;3723;52.220;8.792;2023-11-21T05:08:18;7.30;99.90
7366;DHT22;3723;52.220;8.792;2023-11-21T05:10:45;7.40;99.90
7366;DHT22;3723;52.220;8.792;2023-11-21T05:13:13;7.40;99.90
7366;DHT22;3723;52.220;8.792;2023-11-21T05:15:44;7.30;99.90
7366;DHT22;3723;52.220;8.792;2023-11-21T05:18:11;7.30;99.90
7366;DHT22;3723;52.220;8.792;2023-11-21T05:20:39;7.40;99.90
7366;DHT22;3723;52.220;8.792;2023-11-21T05:23:06;7.40;99.90
7366;DHT22;3723;52.220;8.792;2023-11-21T05:25:34;7.40;99.90
7366;DHT22;3723;52.220;8.792;2023-11-21T05:28:01;7.40;99.90
7366;DHT22;3723;52.220;8.792;2023-11-21T05:30:29;7.40;99.90
7366;DHT22;3723;52.220;8.792;2023-11-21T05:32:58;7.40;99.90
7366;DHT22;3723;52.220;8.792;2023-11-21T05:35:24;7.40;99.90
7366;DHT22;3723;52.220;8.792;2023-11-21T05:37:52;7.40;99.90
7366;DHT22;3723;52.220;8.792;2023-11-21T05:40:20;7.40;99.90
7366;DHT22;3723;52.220;8.792;2023-11-21T05:42:48;7.40;99.90
7366;DHT22;3723;52.220;8.792;2023-11-21T05:45:17;7.40;99.90
7366;DHT22;3723;52.220;8.792;2023-11-21T05:47:46;7.40;99.90
7366;DHT22;3723;52.220;8.792;2023-11-21T05:50:15;7.40;99.90
7366;DHT22;3723;52.220;8.792;2023-11-21T05:52:44;7.40;99.90
7366;DHT22;3723;52.220;8.792;2023-11-21T05:55:11;7.40;99.90
7366;DHT22;3723;52.220;8.792;2023-11-21T05:57:39;7.40;99.90
7366;DHT22;3723;52.220;8.792;2023-11-21T06:00:08;7.40;99.90
7366;DHT22;3723;52.220;8.792;2023-11-21T06:02:41;7.40;99.90
7366;DHT22;3723;52.220;8.792;2023-11-21T06:05:09;7.40;99.90
7366;DHT22;3723;52.220;8.792;2023-11-21T06:07:37;7.40;99.90
7366;DHT22;3723;52.220;8.792;2023-11-21T06:10:06;7.40;99.90
7366;DHT22;3723;52.220;8.792;2023-11-21T06:12:35;7.40;99.90
7366;DHT22;3723;52.220;8.792;2023-11-21T06:15:03;7.40;99.90
7366;DHT22;3723;52.220;8.792;2023-11-21T06:17:31;7.40;99.90
7366;DHT22;3723;52.220;8.792;2023-11-21T06:19:58;7.40;99.90
7366;DHT22;3723;52.220;8.792;2023-11-21T06:22:26;7.40;99.90
7366;DHT22;3723;52.220;8.792;2023-11-21T06:24:54;7.40;99.90
7366;DHT22;3723;52.220;8.792;2023-11-21T06:27:21;7.40;99.90
7366;DHT22;3723;52.220;8.792;2023-11-21T06:29:50;7.40;99.90
7366;DHT22;3723;52.220;8.792;2023-11-21T06:32:17;7.40;99.90
7366;DHT22;3723;52.220;8.792;2023-11-21T06:34:46;7.40;99.90
7366;DHT22;3723;52.220;8.792;2023-11-21T06:37:13;7.40;99.90
7366;DHT22;3723;52.220;8.792;2023-11-21T06:39:40;7.40;99.90
7366;DHT22;3723;52.220;8.792;2023-11-21T06:42:08;7.40;99.90
7366;DHT22;3723;52.220;8.792;2023-11-21T06:44:36;7.50;99.90
7366;DHT22;3723;52.220;8.792;2023-11-21T06:47:05;7.50;99.90
7366;DHT22;3723;52.220;8.792;2023-11-21T06:49:32;7.50;99.90
7366;DHT22;3723;52.220;8.792;2023-11-21T06:51:59;7.50;99.90
7366;DHT22;3723;52.220;8.792;2023-11-21T06:54:28;7.50;99.90
7366;DHT22;3723;52.220;8.792;2023-11-21T06:56:55;7.50;99.90
7366;DHT22;3723;52.220;8.792;2023-11-21T06:59:23;7.50;99.90
7366;DHT22;3723;52.220;8.792;2023-11-21T07:01:50;7.50;99.90
7366;DHT22;3723;52.220;8.792;2023-11-21T07:04:19;7.50;99.90
7366;DHT22;3723;52.220;8.792;2023-11-21T07:06:46;7.50;99.90
7366;DHT22;3723;52.220;8.792;2023-11-21T07:09:13;7.50;99.90
7366;DHT22;3723;52.220;8.792;2023-11-21T07:11:41;7.60;99.90
7366;DHT22;3723;52.220;8.792;2023-11-21T07:14:08;7.50;99.90
7366;DHT22;3723;52.220;8.792;2023-11-21T07:16:36;7.50;99.90
7366;DHT22;3723;52.220;8.792;2023-11-21T07:19:04;7.50;99.90
7366;DHT22;3723;52.220;8.792;2023-11-21T07:21:31;7.60;99.90
7366;DHT22;3723;52.220;8.792;2023-11-21T07:23:59;7.60;99.90
7366;DHT22;3723;52.220;8.792;2023-11-21T07:26:26;7.60;99.90
7366;DHT22;3723;52.220;8.792;2023-11-21T07:28:53;7.60;99.90
7366;DHT22;3723;52.220;8.792;2023-11-21T07:31:21;7.60;99.90
7366;DHT22;3723;52.220;8.792;2023-11-21T07:33:50;7.60;99.90
7366;DHT22;3723;52.220;8.792;2023-11-21T07:36:18;7.70;99.90
7366;DHT22;3723;52.220;8.792;2023-11-21T07:38:46;7.70;99.90
7366;DHT22;3723;52.220;8.792;2023-11-21T07:41:13;7.70;99.90
7366;DHT22;3723;52.220;8.792;2023-11-21T07:43:41;7.70;99.90
7366;DHT22;3723;52.220;8.792;2023-11-21T07:46:08;7.70;99.90
7366;DHT22;3723;52.220;8.792;2023-11-21T07:48:36;7.70;99.90
7366;DHT22;3723;52.220;8.792;2023-11-21T07:51:05;7.70;99.90
7366;DHT22;3723;52.220;8.792;2023-11-21T07:53:34;7.70;99.90
7366;DHT22;3723;52.220;8.792;2023-11-21T07:56:03;7.70;99.90
7366;DHT22;3723;52.220;8.792;2023-11-21T07:58:33;7.70;99.90
7366;DHT22;3723;52.220;8.792;2023-11-21T08:01:01;7.70;99.90
7366;DHT22;3723;52.220;8.792;2023-11-21T08:03:30;7.80;99.90
7366;DHT22;3723;52.220;8.792;2023-11-21T08:05:57;7.80;99.90
7366;DHT22;3723;52.220;8.792;2023-11-21T08:08:25;7.80;99.90
7366;DHT22;3723;52.220;8.792;2023-11-21T08:10:53;7.70;99.90
7366;DHT22;3723;52.220;8.792;2023-11-21T08:13:23;7.80;99.90
7366;DHT22;3723;52.220;8.792;2023-11-21T08:15:50;7.70;99.90
7366;DHT22;3723;52.220;8.792;2023-11-21T08:18:17;7.80;99.90
7366;DHT22;3723;52.220;8.792;2023-11-21T08:20:44;7.80;99.90
7366;DHT22;3723;52.220;8.792;2023-11-21T08:23:14;7.70;99.90
7366;DHT22;3723;52.220;8.792;2023-11-21T08:25:43;7.80;99.90
7366;DHT22;3723;52.220;8.792;2023-11-21T08:28:10;7.70;99.90
7366;DHT22;3723;52.220;8.792;2023-11-21T08:30:37;7.70;99.90
7366;DHT22;3723;52.220;8.792;2023-11-21T08:33:05;7.70;99.90
7366;DHT22;3723;52.220;8.792;2023-11-21T08:35:32;7.60;99.90
7366;DHT22;3723;52.220;8.792;2023-11-21T08:37:59;7.60;99.90
7366;DHT22;3723;52.220;8.792;2023-11-21T08:40:26;7.60;99.90
7366;DHT22;3723;52.220;8.792;2023-11-21T08:42:54;7.60;99.90
7366;DHT22;3723;52.220;8.792;2023-11-21T08:45:21;7.50;99.90
7366;DHT22;3723;52.220;8.792;2023-11-21T08:47:49;7.50;99.90
7366;DHT22;3723;52.220;8.792;2023-11-21T08:50:15;7.50;99.90
7366;DHT22;3723;52.220;8.792;2023-11-21T08:52:44;7.50;99.90
7366;DHT22;3723;52.220;8.792;2023-11-21T08:55:12;7.40;99.90
7366;DHT22;3723;52.220;8.792;2023-11-21T08:57:40;7.40;99.90
7366;DHT22;3723;52.220;8.792;2023-11-21T09:00:10;7.40;99.90
7366;DHT22;3723;52.220;8.792;2023-11-21T09:02:37;7.30;99.90
7366;DHT22;3723;52.220;8.792;2023-11-21T09:05:05;7.30;99.90
7366;DHT22;3723;52.220;8.792;2023-11-21T09:07:32;7.30;99.90
7366;DHT22;3723;52.220;8.792;2023-11-21T09:09:59;7.40;99.90
7366;DHT22;3723;52.220;8.792;2023-11-21T09:12:26;7.30;99.90
7366;DHT22;3723;52.220;8.792;2023-11-21T09:14:53;7.30;99.90
7366;DHT22;3723;52.220;8.792;2023-11-21T09:17:22;7.30;52.50
7366;DHT22;3723;52.220;8.792;2023-11-21T09:19:49;7.30;29.90
7366;DHT22;3723;52.220;8.792;2023-11-21T09:22:17;7.30;1.00
7366;DHT22;3723;52.220;8.792;2023-11-21T09:24:44;7.30;1.00
7366;DHT22;3723;52.220;8.792;2023-11-21T09:27:11;7.30;1.00
7366;DHT22;3723;52.220;8.792;2023-11-21T09:29:38;7.30;1.00
7366;DHT22;3723;52.220;8.792;2023-11-21T09:32:05;7.30;1.00
7366;DHT22;3723;52.220;8.792;2023-11-21T09:34:35;7.20;1.00
7366;DHT22;3723;52.220;8.792;2023-11-21T09:37:04;7.30;1.00
7366;DHT22;3723;52.220;8.792;2023-11-21T09:39:32;7.20;1.00
7366;DHT22;3723;52.220;8.792;2023-11-21T09:42:05;7.20;1.00
7366;DHT22;3723;52.220;8.792;2023-11-21T09:44:35;7.20;1.00
7366;DHT22;3723;52.220;8.792;2023-11-21T09:47:03;7.20;1.00
7366;DHT22;3723;52.220;8.792;2023-11-21T09:49:36;7.20;1.00
7366;DHT22;3723;52.220;8.792;2023-11-21T09:52:04;7.20;1.00
7366;DHT22;3723;52.220;8.792;2023-11-21T09:54:34;7.20;1.00
7366;DHT22;3723;52.220;8.792;2023-11-21T09:57:02;7.20;1.00
7366;DHT22;3723;52.220;8.792;2023-11-21T09:59:31;7.20;1.00
7366;DHT22;3723;52.220;8.792;2023-11-21T10:01:58;7.10;1.00
7366;DHT22;3723;52.220;8.792;2023-11-21T10:04:27;7.20;1.00
7366;DHT22;3723;52.220;8.792;2023-11-21T10:06:56;7.20;1.00
7366;DHT22;3723;52.220;8.792;2023-11-21T10:09:24;7.20;1.00
7366;DHT22;3723;52.220;8.792;2023-11-21T10:11:52;7.20;1.00
7366;DHT22;3723;52.220;8.792;2023-11-21T10:14:24;7.20;99.90
7366;DHT22;3723;52.220;8.792;2023-11-21T10:16:55;7.30;99.90
7366;DHT22;3723;52.220;8.792;2023-11-21T10:19:23;7.30;99.90
7366;DHT22;3723;52.220;8.792;2023-11-21T10:21:51;7.30;99.90
7366;DHT22;3723;52.220;8.792;2023-11-21T10:24:19;7.30;99.90
7366;DHT22;3723;52.220;8.792;2023-11-21T10:26:46;7.30;99.90
7366;DHT22;3723;52.220;8.792;2023-11-21T10:29:16;7.40;99.90
7366;DHT22;3723;52.220;8.792;2023-11-21T10:31:44;7.40;99.90
7366;DHT22;3723;52.220;8.792;2023-11-21T10:34:15;7.40;99.90
7366;DHT22;3723;52.220;8.792;2023-11-21T10:36:42;7.40;99.90
7366;DHT22;3723;52.220;8.792;2023-11-21T10:39:09;7.30;1.00
7366;DHT22;3723;52.220;8.792;2023-11-21T10:41:38;7.20;1.00
7366;DHT22;3723;52.220;8.792;2023-11-21T10:44:05;7.20;1.00
7366;DHT22;3723;52.220;8.792;2023-11-21T10:46:34;7.10;1.00
7366;DHT22;3723;52.220;8.792;2023-11-21T10:49:03;7.10;1.00
7366;DHT22;3723;52.220;8.792;2023-11-21T10:51:30;7.00;1.00
7366;DHT22;3723;52.220;8.792;2023-11-21T10:53:57;7.00;1.00
7366;DHT22;3723;52.220;8.792;2023-11-21T10:56:26;7.10;1.00
7366;DHT22;3723;52.220;8.792;2023-11-21T10:58:57;7.10;1.00
7366;DHT22;3723;52.220;8.792;2023-11-21T11:01:26;7.10;1.00
7366;DHT22;3723;52.220;8.792;2023-11-21T11:03:55;7.10;1.00
7366;DHT22;3723;52.220;8.792;2023-11-21T11:06:24;7.10;1.00
7366;DHT22;3723;52.220;8.792;2023-11-21T11:08:53;7.10;99.90
7366;DHT22;3723;52.220;8.792;2023-11-21T11:11:20;7.10;99.90
7366;DHT22;3723;52.220;8.792;2023-11-21T11:13:48;7.10;99.90
7366;DHT22;3723;52.220;8.792;2023-11-21T11:16:17;7.10;99.90
7366;DHT22;3723;52.220;8.792;2023-11-21T11:18:44;7.00;99.90
7366;DHT22;3723;52.220;8.792;2023-11-21T11:21:22;6.90;99.90
7366;DHT22;3723;52.220;8.792;2023-11-21T11:24:01;6.80;99.90
7366;DHT22;3723;52.220;8.792;2023-11-21T11:26:40;6.80;99.90
7366;DHT22;3723;52.220;8.792;2023-11-21T11:29:14;6.80;99.90
7366;DHT22;3723;52.220;8.792;2023-11-21T11:31:54;6.90;99.90
7366;DHT22;3723;52.220;8.792;2023-11-21T11:34:29;7.00;99.90
7366;DHT22;3723;52.220;8.792;2023-11-21T11:37:01;7.10;99.90
7366;DHT22;3723;52.220;8.792;2023-11-21T11:39:30;7.20;99.90
7366;DHT22;3723;52.220;8.792;2023-11-21T11:41:58;7.30;99.90
7366;DHT22;3723;52.220;8.792;2023-11-21T11:44:50;7.30;99.90
7366;DHT22;3723;52.220;8.792;2023-11-21T11:47:24;7.40;99.90
7366;DHT22;3723;52.220;8.792;2023-11-21T11:49:58;7.40;76.80
7366;DHT22;3723;52.220;8.792;2023-11-21T11:52:35;7.40;52.50
7366;DHT22;3723;52.220;8.792;2023-11-21T11:55:05;7.40;33.50
7366;DHT22;3723;52.220;8.792;2023-11-21T11:57:34;7.30;11.20
7366;DHT22;3723;52.220;8.792;2023-11-21T12:00:16;7.40;1.00
7366;DHT22;3723;52.220;8.792;2023-11-21T12:02:47;7.40;1.00
7366;DHT22;3723;52.220;8.792;2023-11-21T12:05:16;7.50;1.00
7366;DHT22;3723;52.220;8.792;2023-11-21T12:07:46;7.70;1.00
7366;DHT22;3723;52.220;8.792;2023-11-21T12:10:14;7.90;1.00
7366;DHT22;3723;52.220;8.792;2023-11-21T12:12:44;7.90;1.00
7366;DHT22;3723;52.220;8.792;2023-11-21T12:15:12;7.90;1.00
7366;DHT22;3723;52.220;8.792;2023-11-21T12:17:40;7.90;1.00
7366;DHT22;3723;52.220;8.792;2023-11-21T12:20:11;7.90;1.00
7366;DHT22;3723;52.220;8.792;2023-11-21T12:22:43;7.90;1.00
7366;DHT22;3723;52.220;8.792;2023-11-21T12:25:14;7.90;1.00
7366;DHT22;3723;52.220;8.792;2023-11-21T12:27:43;7.90;1.00
7366;DHT22;3723;52.220;8.792;2023-11-21T12:30:12;7.80;1.00
7366;DHT22;3723;52.220;8.792;2023-11-21T12:32:42;7.90;1.00
7366;DHT22;3723;52.220;8.792;2023-11-21T12:35:11;7.90;1.00
7366;DHT22;3723;52.220;8.792;2023-11-21T12:37:38;7.90;1.00
7366;DHT22;3723;52.220;8.792;2023-11-21T12:40:06;7.90;1.00
7366;DHT22;3723;52.220;8.792;2023-11-21T12:42:37;7.90;1.00
7366;DHT22;3723;52.220;8.792;2023-11-21T12:45:09;8.00;1.00
7366;DHT22;3723;52.220;8.792;2023-11-21T12:47:41;8.00;1.00
7366;DHT22;3723;52.220;8.792;2023-11-21T12:50:10;8.10;1.00
7366;DHT22;3723;52.220;8.792;2023-11-21T12:52:44;8.30;1.00
7366;DHT22;3723;52.220;8.792;2023-11-21T12:55:15;8.60;1.00
7366;DHT22;3723;52.220;8.792;2023-11-21T12:57:43;8.90;1.00
7366;DHT22;3723;52.220;8.792;2023-11-21T13:00:12;9.10;1.00
7366;DHT22;3723;52.220;8.792;2023-11-21T13:02:54;9.00;1.00
7366;DHT22;3723;52.220;8.792;2023-11-21T13:05:29;8.90;1.00
7366;DHT22;3723;52.220;8.792;2023-11-21T13:07:59;8.70;1.00
7366;DHT22;3723;52.220;8.792;2023-11-21T13:10:29;8.60;1.00
7366;DHT22;3723;52.220;8.792;2023-11-21T13:12:57;8.40;1.00
7366;DHT22;3723;52.220;8.792;2023-11-21T13:15:26;8.30;1.00
7366;DHT22;3723;52.220;8.792;2023-11-21T13:17:54;8.20;1.00
7366;DHT22;3723;52.220;8.792;2023-11-21T13:20:22;8.10;1.00
7366;DHT22;3723;52.220;8.792;2023-11-21T13:22:54;8.00;1.00
7366;DHT22;3723;52.220;8.792;2023-11-21T13:25:23;8.00;1.00
7366;DHT22;3723;52.220;8.792;2023-11-21T13:27:52;8.00;1.00
7366;DHT22;3723;52.220;8.792;2023-11-21T13:30:19;7.90;1.00
7366;DHT22;3723;52.220;8.792;2023-11-21T13:32:52;7.70;1.00
7366;DHT22;3723;52.220;8.792;2023-11-21T13:35:19;7.70;1.00
7366;DHT22;3723;52.220;8.792;2023-11-21T13:38:02;7.60;1.00
7366;DHT22;3723;52.220;8.792;2023-11-21T13:40:31;7.50;1.00
7366;DHT22;3723;52.220;8.792;2023-11-21T13:43:00;7.50;1.00
7366;DHT22;3723;52.220;8.792;2023-11-21T13:45:31;7.40;1.00
7366;DHT22;3723;52.220;8.792;2023-11-21T13:47:57;7.40;1.00
7366;DHT22;3723;52.220;8.792;2023-11-21T13:50:27;7.30;1.00
7366;DHT22;3723;52.220;8.792;2023-11-21T13:53:00;7.30;1.00
7366;DHT22;3723;52.220;8.792;2023-11-21T13:55:31;7.40;1.00
7366;DHT22;3723;52.220;8.792;2023-11-21T13:57:58;7.40;1.00
7366;DHT22;3723;52.220;8.792;2023-11-21T14:00:25;7.30;1.00
7366;DHT22;3723;52.220;8.792;2023-11-21T14:03:10;7.30;1.00
7366;DHT22;3723;52.220;8.792;2023-11-21T14:05:45;7.40;1.00
7366;DHT22;3723;52.220;8.792;2023-11-21T14:08:27;7.30;1.00
7366;DHT22;3723;52.220;8.792;2023-11-21T14:10:54;7.30;1.00
7366;DHT22;3723;52.220;8.792;2023-11-21T14:13:23;7.30;1.00
7366;DHT22;3723;52.220;8.792;2023-11-21T14:15:50;7.20;1.00
7366;DHT22;3723;52.220;8.792;2023-11-21T14:18:18;7.20;1.00
7366;DHT22;3723;52.220;8.792;2023-11-21T14:20:53;7.20;1.00
7366;DHT22;3723;52.220;8.792;2023-11-21T14:23:20;7.20;1.00
7366;DHT22;3723;52.220;8.792;2023-11-21T14:25:50;7.20;1.00
7366;DHT22;3723;52.220;8.792;2023-11-21T14:30:45;7.20;1.00
7366;DHT22;3723;52.220;8.792;2023-11-21T14:33:12;7.20;1.00
7366;DHT22;3723;52.220;8.792;2023-11-21T14:35:39;7.20;1.00
7366;DHT22;3723;52.220;8.792;2023-11-21T14:38:25;7.10;1.00
7366;DHT22;3723;52.220;8.792;2023-11-21T14:40:54;7.10;1.00
7366;DHT22;3723;52.220;8.792;2023-11-21T14:43:22;7.10;1.00
7366;DHT22;3723;52.220;8.792;2023-11-21T14:45:50;7.00;1.00
7366;DHT22;3723;52.220;8.792;2023-11-21T14:48:17;6.90;1.00
7366;DHT22;3723;52.220;8.792;2023-11-21T14:51:08;6.90;1.00
7366;DHT22;3723;52.220;8.792;2023-11-21T14:53:54;6.90;1.00
7366;DHT22;3723;52.220;8.792;2023-11-21T14:56:29;6.80;1.00
7366;DHT22;3723;52.220;8.792;2023-11-21T14:59:10;6.80;1.00
7366;DHT22;3723;52.220;8.792;2023-11-21T15:01:52;6.80;1.00
7366;DHT22;3723;52.220;8.792;2023-11-21T15:04:21;6.70;1.00
7366;DHT22;3723;52.220;8.792;2023-11-21T15:07:01;6.70;1.00
7366;DHT22;3723;52.220;8.792;2023-11-21T15:09:30;6.70;1.00
7366;DHT22;3723;52.220;8.792;2023-11-21T15:12:12;6.70;1.00
7366;DHT22;3723;52.220;8.792;2023-11-21T15:15:13;6.60;1.00
7366;DHT22;3723;52.220;8.792;2023-11-21T15:17:40;6.60;1.00
7366;DHT22;3723;52.220;8.792;2023-11-21T15:20:10;6.50;1.00
7366;DHT22;3723;52.220;8.792;2023-11-21T15:22:44;6.50;1.00
7366;DHT22;3723;52.220;8.792;2023-11-21T15:25:11;6.50;1.00
7366;DHT22;3723;52.220;8.792;2023-11-21T15:27:40;6.40;1.00
7366;DHT22;3723;52.220;8.792;2023-11-21T15:30:08;6.40;1.00
7366;DHT22;3723;52.220;8.792;2023-11-21T15:32:35;6.30;1.00
7366;DHT22;3723;52.220;8.792;2023-11-21T15:35:02;6.30;1.00
7366;DHT22;3723;52.220;8.792;2023-11-21T15:37:29;6.20;1.00
7366;DHT22;3723;52.220;8.792;2023-11-21T15:39:57;6.20;1.00
7366;DHT22;3723;52.220;8.792;2023-11-21T15:42:26;6.20;1.00
7366;DHT22;3723;52.220;8.792;2023-11-21T15:44:55;6.10;1.00
7366;DHT22;3723;52.220;8.792;2023-11-21T15:47:22;6.10;1.00
7366;DHT22;3723;52.220;8.792;2023-11-21T15:49:50;6.10;1.00
7366;DHT22;3723;52.220;8.792;2023-11-21T15:52:17;6.10;1.00
7366;DHT22;3723;52.220;8.792;2023-11-21T15:54:44;6.20;1.00
7366;DHT22;3723;52.220;8.792;2023-11-21T15:57:12;6.10;1.00
7366;DHT22;3723;52.220;8.792;2023-11-21T15:59:52;6.00;1.00
7366;DHT22;3723;52.220;8.792;2023-11-21T16:02:27;6.00;1.00
7366;DHT22;3723;52.220;8.792;2023-11-21T16:04:57;6.00;1.00
7366;DHT22;3723;52.220;8.792;2023-11-21T16:07:37;6.00;1.00
7366;DHT22;3723;52.220;8.792;2023-11-21T16:10:12;6.00;1.00
7366;DHT22;3723;52.220;8.792;2023-11-21T16:12:41;6.00;1.00
7366;DHT22;3723;52.220;8.792;2023-11-21T16:15:08;6.00;1.00
7366;DHT22;3723;52.220;8.792;2023-11-21T16:17:49;6.00;1.00
7366;DHT22;3723;52.220;8.792;2023-11-21T16:20:23;6.00;1.00
7366;DHT22;3723;52.220;8.792;2023-11-21T16:22:51;6.00;1.00
7366;DHT22;3723;52.220;8.792;2023-11-21T16:25:19;6.10;1.00
7366;DHT22;3723;52.220;8.792;2023-11-21T16:27:47;6.10;1.00
7366;DHT22;3723;52.220;8.792;2023-11-21T16:30:14;6.10;1.00
7366;DHT22;3723;52.220;8.792;2023-11-21T16:32:41;6.10;1.00
7366;DHT22;3723;52.220;8.792;2023-11-21T16:35:09;6.10;1.00
7366;DHT22;3723;52.220;8.792;2023-11-21T16:37:37;6.00;1.00